.
WxDataArchive / Data Records for 2013-08-21
2013-08-20 August 2013 2013-08-22

Data Records for Wednesday, 21 August 2013

Time	Temp	Chill	HIndex	Humid	Dewpt	 Wind 	HiWind	WindDir	Rain 	Barom 
-----	----	-----	------	-----	-----	------	------	-------	-----	----- 
00:00	72.1	72.1	72.1	78	64.8	0	0	---	0.00	30.085 
00:05	72.1	72.1	72.1	78	64.8	0	0	---	0.00	30.085 
00:10	72.0	72.0	72.0	79	65.1	0	0	---	0.00	30.085 
00:15	71.8	71.8	71.8	79	64.9	0	0	---	0.00	30.083 
00:20	71.6	71.6	71.6	79	64.7	0	0	---	0.00	30.083 
00:25	71.5	71.5	71.5	79	64.6	0	0	---	0.00	30.083 
00:30	71.3	71.3	71.3	80	64.8	0	0	---	0.00	30.084 
00:35	71.1	71.1	71.1	80	64.6	0	0	---	0.00	30.084 
00:40	70.9	70.9	70.9	81	64.8	0	0	---	0.00	30.084 
00:45	70.8	70.8	70.8	81	64.7	0	0	---	0.00	30.083 
00:50	70.6	70.6	70.6	81	64.5	0	0	---	0.00	30.083 
00:55	70.4	70.4	70.4	81	64.3	0	0	---	0.00	30.083 
01:00	70.3	70.3	70.3	82	64.5	0	0	---	0.00	30.083 
01:05	70.1	70.1	70.1	82	64.3	0	0	---	0.00	30.083 
01:10	69.9	69.9	69.9	83	64.5	0	0	---	0.00	30.083 
01:15	69.8	69.8	69.8	83	64.4	0	0	---	0.00	30.085 
01:20	69.8	69.8	69.8	83	64.4	0	0	---	0.00	30.085 
01:25	69.6	69.6	69.6	83	64.2	0	0	---	0.00	30.085 
01:30	69.4	69.4	69.4	83	64.0	0	0	---	0.00	30.087 
01:35	69.4	69.4	69.4	83	64.0	0	0	---	0.00	30.087 
01:40	69.3	69.3	69.3	83	63.9	0	0	---	0.00	30.087 
01:45	69.1	69.1	69.1	83	63.7	0	0	---	0.00	30.088 
01:50	69.1	69.1	69.1	83	63.7	0	0	---	0.00	30.088 
01:55	68.9	68.9	68.9	84	63.9	0	0	---	0.00	30.088 
02:00	68.9	68.9	68.9	84	63.9	0	0	---	0.00	30.087 
02:05	68.8	68.8	68.8	84	63.8	0	0	---	0.00	30.087 
02:10	68.8	68.8	68.8	84	63.8	0	0	---	0.00	30.087 
02:15	68.6	68.6	68.6	84	63.6	0	0	---	0.00	30.087 
02:20	68.4	68.4	68.4	84	63.4	0	0	---	0.00	30.087 
02:25	68.4	68.4	68.4	84	63.4	0	0	---	0.00	30.087 
02:30	68.4	68.4	68.4	84	63.4	0	0	---	0.00	30.086 
02:35	68.3	68.3	68.3	84	63.3	0	0	---	0.00	30.086 
02:40	68.3	68.3	68.3	84	63.3	0	0	---	0.00	30.086 
02:45	68.1	68.1	68.1	84	63.1	0	0	---	0.00	30.085 
02:50	68.1	68.1	68.1	84	63.1	0	0	---	0.00	30.085 
02:55	67.9	67.9	67.9	84	62.9	0	0	---	0.00	30.085 
03:00	67.9	67.9	67.9	84	62.9	0	0	---	0.00	30.084 
03:05	67.9	67.9	67.9	84	62.9	0	0	---	0.00	30.084 
03:10	67.9	67.9	67.9	84	62.9	0	0	---	0.00	30.084 
03:15	67.8	67.8	67.8	84	62.8	0	0	---	0.00	30.082 
03:20	67.8	67.8	67.8	84	62.8	0	0	---	0.00	30.082 
03:25	67.8	67.8	67.8	84	62.8	0	0	---	0.00	30.082 
03:30	67.8	67.8	67.8	83	62.4	0	0	---	0.00	30.083 
03:35	67.9	67.9	67.9	83	62.5	0	0	---	0.00	30.083 
03:40	67.9	67.9	67.9	83	62.5	0	0	---	0.00	30.083 
03:45	67.9	67.9	67.9	82	62.2	0	0	---	0.00	30.084 
03:50	68.1	68.1	68.1	82	62.4	0	0	---	0.00	30.084 
03:55	68.1	68.1	68.1	82	62.4	0	0	---	0.00	30.084 
04:00	68.1	68.1	68.1	82	62.4	0	0	---	0.00	30.082 
04:05	68.1	68.1	68.1	82	62.4	0	0	---	0.00	30.082 
04:10	68.1	68.1	68.1	82	62.4	0	0	---	0.00	30.082 
04:15	68.1	68.1	68.1	82	62.4	0	0	---	0.00	30.078 
04:20	67.9	67.9	67.9	82	62.2	0	0	---	0.00	30.078 
04:25	67.9	67.9	67.9	82	62.2	0	0	---	0.00	30.078 
04:30	67.8	67.8	67.8	82	62.1	0	0	---	0.00	30.077 
04:35	67.8	67.8	67.8	82	62.1	0	0	---	0.00	30.077 
04:40	67.8	67.8	67.8	82	62.1	0	0	---	0.00	30.077 
04:45	67.8	67.8	67.8	82	62.1	0	0	---	0.00	30.076 
04:50	67.6	67.6	67.6	82	61.9	0	0	---	0.00	30.076 
04:55	67.6	67.6	67.6	82	61.9	0	0	---	0.00	30.076 
05:00	67.6	67.6	67.6	82	61.9	0	0	---	0.00	30.076 
05:05	67.6	67.6	67.6	82	61.9	0	0	---	0.00	30.076 
05:10	67.4	67.4	67.4	82	61.7	0	0	---	0.00	30.076 
05:15	67.3	67.3	67.3	83	62.0	0	0	---	0.00	30.075 
05:20	67.1	67.1	67.1	83	61.8	0	0	---	0.00	30.075 
05:25	67.1	67.1	67.1	83	61.8	0	0	---	0.00	30.075 
05:30	66.9	66.9	66.9	83	61.6	0	0	---	0.00	30.073 
05:35	66.9	66.9	66.9	84	61.9	0	0	---	0.00	30.073 
05:40	66.9	66.9	66.9	84	61.9	0	0	---	0.00	30.073 
05:45	66.8	66.8	66.8	84	61.8	0	0	---	0.00	30.074 
05:50	66.6	66.6	66.6	84	61.6	0	0	---	0.00	30.074 
05:55	66.6	66.6	66.6	84	61.6	0	0	---	0.00	30.074 
06:00	66.4	66.4	66.4	84	61.4	0	0	---	0.00	30.074 
06:05	66.3	66.3	66.3	84	61.3	0	0	---	0.00	30.074 
06:10	66.1	66.1	66.1	85	61.5	0	0	---	0.00	30.074 
06:15	66.0	66.0	66.0	85	61.4	0	0	---	0.00	30.084 
06:20	65.8	65.8	65.8	85	61.2	0	0	---	0.00	30.084 
06:25	65.6	65.6	65.6	85	61.0	0	0	---	0.00	30.084 
06:30	65.5	65.5	65.5	86	61.2	0	0	---	0.00	30.088 
06:35	65.5	65.5	65.5	86	61.2	0	0	---	0.00	30.088 
06:40	65.3	65.3	65.3	86	61.0	0	0	---	0.00	30.088 
06:45	65.2	65.2	65.2	87	61.2	0	0	---	0.00	30.091 
06:50	65.0	65.0	65.0	87	61.0	0	0	---	0.00	30.091 
06:55	65.0	65.0	65.0	87	61.0	0	0	---	0.00	30.091 
07:00	64.8	64.8	64.8	88	61.2	0	0	---	0.00	30.095 
07:05	64.8	64.8	64.8	88	61.2	0	0	---	0.00	30.095 
07:10	64.7	64.7	64.7	88	61.1	0	0	---	0.00	30.095 
07:15	64.7	64.7	64.7	88	61.1	0	0	---	0.00	30.106 
07:20	64.8	64.8	64.8	89	61.5	0	0	---	0.00	30.106 
07:25	65.0	65.0	65.0	89	61.7	0	0	---	0.00	30.106 
07:30	65.2	65.2	65.2	89	61.9	0	0	---	0.00	30.106 
07:35	65.5	65.5	65.5	89	62.2	0	0	---	0.00	30.106 
07:40	65.6	65.6	65.6	89	62.3	0	0	---	0.00	30.106 
07:45	65.8	65.8	65.8	89	62.5	0	0	---	0.00	30.107 
07:50	66.3	66.3	66.3	88	62.6	0	1	292	0.00	30.107 
07:55	66.8	66.8	66.8	87	62.8	0	1	292	0.00	30.107 
08:00	67.3	67.3	67.3	86	63.0	0	0	---	0.00	30.108 
08:05	67.6	67.6	67.6	85	62.9	0	0	---	0.00	30.108 
08:10	67.9	67.9	67.9	85	63.2	0	0	---	0.00	30.108 
08:15	68.6	68.6	68.6	84	63.6	0	0	---	0.00	30.115 
08:20	69.3	69.3	69.3	84	64.2	0	0	---	0.00	30.115 
08:25	70.1	70.1	70.1	82	64.3	0	1	292	0.00	30.115 
08:30	70.9	70.9	70.9	79	64.1	0	1	292	0.00	30.116 
08:35	71.3	71.3	71.3	78	64.1	0	1	292	0.00	30.116 
08:40	71.5	71.5	71.5	78	64.3	0	1	292	0.00	30.116 
08:45	72.0	72.0	72.0	78	64.8	0	1	292	0.00	30.119 
08:50	72.3	72.3	72.3	77	64.7	0	1	292	0.00	30.119 
08:55	72.7	72.7	72.7	77	65.1	0	1	292	0.00	30.119 
09:00	72.8	72.8	72.8	77	65.2	0	0	---	0.00	30.113 
09:05	73.0	73.0	73.0	77	65.3	0	0	---	0.00	30.113 
09:10	73.3	73.3	73.3	76	65.3	0	1	292	0.00	30.113 
09:15	73.5	73.5	73.5	75	65.1	0	0	---	0.00	30.118 
09:20	73.7	73.7	73.7	75	65.3	0	0	---	0.00	30.118 
09:25	73.7	73.7	73.7	75	65.3	0	2	292	0.00	30.118 
09:30	73.9	73.9	73.9	75	65.5	0	2	292	0.00	30.119 
09:35	73.9	73.9	73.9	75	65.5	0	1	292	0.00	30.119 
09:40	73.7	73.7	73.7	76	65.6	0	1	292	0.00	30.119 
09:45	73.7	73.7	73.7	76	65.6	0	1	292	0.00	30.120 
09:50	73.7	73.7	73.7	76	65.6	0	1	292	0.00	30.120 
09:55	74.0	74.0	74.0	76	65.9	0	2	292	0.00	30.120 
10:00	74.6	74.6	74.6	75	66.1	0	1	292	0.00	30.111 
10:05	74.7	74.7	74.7	75	66.2	0	3	248	0.00	30.111 
10:10	74.6	74.6	74.6	74	65.7	0	2	270	0.00	30.111 
10:15	74.0	74.0	74.0	75	65.6	0	2	270	0.00	30.120 
10:20	73.5	73.5	73.5	77	65.8	0	2	270	0.00	30.120 
10:25	73.0	73.0	73.0	77	65.3	0	2	270	0.00	30.120 
10:30	72.5	72.5	72.5	78	65.2	0	1	270	0.00	30.123 
10:35	72.3	72.3	72.3	79	65.4	0	1	225	0.00	30.123 
10:40	72.1	72.1	72.1	80	65.6	0	2	292	0.00	30.123 
10:45	72.0	72.0	72.0	80	65.5	0	1	292	0.00	30.136 
10:50	72.0	72.0	72.0	81	65.8	0	2	292	0.00	30.136 
10:55	72.0	72.0	72.0	81	65.8	0	2	292	0.00	30.136 
11:00	72.0	72.0	72.0	81	65.8	0	1	292	0.00	30.137 
11:05	72.0	72.0	72.0	82	66.2	0	1	292	0.00	30.137 
11:10	71.8	71.8	71.8	82	66.0	0	1	292	0.00	30.137 
11:15	71.8	71.8	71.8	82	66.0	0	3	315	0.00	30.141 
11:20	71.8	71.8	71.8	82	66.0	0	2	45	0.00	30.141 
11:25	71.6	71.6	71.6	83	66.2	0	1	68	0.00	30.141 
11:30	71.6	71.6	71.6	83	66.2	0	0	---	0.00	30.140 
11:35	71.6	71.6	71.6	83	66.2	0	0	---	0.00	30.140 
11:40	71.6	71.6	71.6	84	66.5	0	0	---	0.00	30.140 
11:45	71.6	71.6	71.6	84	66.5	0	0	---	0.00	30.139 
11:50	71.5	71.5	71.5	84	66.4	0	1	68	0.00	30.139 
11:55	71.5	71.5	71.5	84	66.4	0	1	68	0.00	30.139 
12:00	71.5	71.5	71.5	84	66.4	0	1	68	0.00	30.136 
12:05	71.5	71.5	71.5	85	66.7	0	1	68	0.00	30.136 
12:10	71.3	71.3	71.3	85	66.5	0	0	---	0.00	30.136 
12:15	71.5	71.5	71.5	85	66.7	0	0	---	0.00	30.125 
12:20	71.6	71.6	71.6	85	66.8	0	1	68	0.00	30.125 
12:25	71.6	71.6	71.6	85	66.8	0	0	---	0.00	30.125 
12:30	71.8	71.8	71.8	84	66.7	0	2	68	0.00	30.114 
12:35	71.8	71.8	71.8	84	66.7	0	3	68	0.00	30.114 
12:40	72.0	72.0	72.0	83	66.5	0	1	68	0.00	30.114 
12:45	72.1	72.1	72.1	82	66.3	0	2	135	0.00	30.118 
12:50	72.3	72.3	72.3	82	66.5	1	3	112	0.00	30.118 
12:55	72.5	72.5	72.5	81	66.3	0	1	112	0.00	30.118 
13:00	72.8	72.8	72.8	81	66.6	0	1	112	0.00	30.110 
13:05	73.0	73.0	73.0	80	66.5	0	2	112	0.00	30.110 
13:10	73.3	73.3	73.3	80	66.7	0	1	112	0.00	30.110 
13:15	73.7	73.7	73.7	80	67.1	0	1	112	0.00	30.109 
13:20	74.0	74.0	74.0	79	67.1	0	1	112	0.00	30.109 
13:25	74.4	74.4	74.4	78	67.1	0	1	112	0.00	30.109 
13:30	74.9	74.9	74.9	77	67.2	0	2	112	0.00	30.108 
13:35	75.3	75.3	76.3	77	67.6	1	4	90	0.00	30.108 
13:40	75.4	75.4	76.4	77	67.7	1	2	90	0.00	30.108 
13:45	75.6	75.6	76.7	77	67.9	0	2	90	0.00	30.097 
13:50	76.0	76.0	77.2	77	68.3	0	1	90	0.00	30.097 
13:55	76.5	76.5	78.0	76	68.4	0	1	90	0.00	30.097 
14:00	76.8	76.8	78.4	75	68.3	0	1	90	0.00	30.098 
14:05	77.4	77.4	79.3	76	69.2	0	1	90	0.00	30.098 
14:10	77.7	77.7	79.7	74	68.7	0	1	90	0.00	30.098 
14:15	78.1	78.1	80.3	73	68.7	0	3	90	0.00	30.095 
14:20	78.5	78.5	80.8	72	68.7	0	1	90	0.00	30.095 
14:25	79.0	79.0	81.4	70	68.4	0	1	90	0.00	30.095 
14:30	79.6	79.6	82.4	71	69.3	0	1	90	0.00	30.089 
14:35	79.9	79.9	82.7	69	68.8	0	2	90	0.00	30.089 
14:40	80.1	80.1	83.1	70	69.4	0	1	90	0.00	30.089 
14:45	80.5	80.5	83.6	69	69.4	0	3	90	0.00	30.077 
14:50	80.7	80.7	83.8	68	69.1	0	2	90	0.00	30.077 
14:55	81.1	81.1	84.1	66	68.6	0	3	90	0.00	30.077 
15:00	81.2	81.2	84.3	66	68.7	1	4	112	0.00	30.071 
15:05	81.8	81.8	85.1	65	68.9	1	3	112	0.00	30.071 
15:10	82.2	82.2	85.3	63	68.3	1	3	112	0.00	30.071 
15:15	83.0	83.0	86.4	62	68.6	1	3	112	0.00	30.059 
15:20	83.2	83.2	86.7	62	68.8	1	4	112	0.00	30.059 
15:25	83.4	83.4	86.3	59	67.5	1	3	112	0.00	30.059 
15:30	83.6	83.6	86.6	59	67.7	1	3	270	0.00	30.053 
15:35	84.3	84.3	87.2	57	67.4	0	1	270	0.00	30.053 
15:40	84.9	84.9	87.9	56	67.4	0	2	270	0.00	30.053 
15:45	85.5	85.5	88.6	55	67.5	1	2	0	0.00	30.052 
15:50	85.5	85.5	88.9	56	68.0	1	3	0	0.00	30.052 
15:55	85.5	85.5	88.3	54	66.9	1	4	270	0.00	30.052 
16:00	85.7	85.7	88.9	55	67.6	1	3	112	0.00	30.040 
16:05	85.9	85.9	88.0	51	65.6	0	2	112	0.00	30.040 
16:10	85.9	85.9	87.5	49	64.5	1	3	112	0.00	30.040 
16:15	86.1	86.1	88.6	52	66.4	0	1	112	0.00	30.037 
16:20	85.9	85.9	88.6	53	66.7	1	2	112	0.00	30.037 
16:25	85.7	85.7	88.0	52	66.0	0	2	0	0.00	30.037 
16:30	85.7	85.7	87.7	51	65.5	0	3	338	0.00	30.036 
16:35	85.7	85.7	87.2	49	64.3	0	2	338	0.00	30.036 
16:40	85.7	85.7	86.7	47	63.1	1	4	292	0.00	30.036 
16:45	85.7	85.7	87.4	50	64.9	1	4	292	0.00	30.031 
16:50	85.7	85.7	87.4	50	64.9	1	3	292	0.00	30.031 
16:55	85.7	85.7	87.2	49	64.3	0	2	292	0.00	30.031 
17:00	85.7	85.7	86.9	48	63.7	1	3	292	0.00	30.025 
17:05	86.1	86.1	87.2	47	63.5	1	3	292	0.00	30.025 
17:10	86.3	86.3	87.2	46	63.0	1	2	292	0.00	30.025 
17:15	86.3	86.3	87.5	47	63.7	1	3	292	0.00	30.024 
17:20	86.1	86.1	87.5	48	64.1	1	3	292	0.00	30.024 
17:25	86.1	86.1	87.8	49	64.7	0	3	292	0.00	30.024 
17:30	86.5	86.5	88.1	48	64.4	0	2	292	0.00	30.022 
17:35	86.3	86.3	87.8	48	64.3	1	3	292	0.00	30.022 
17:40	86.1	86.1	87.8	49	64.7	0	1	292	0.00	30.022 
17:45	85.9	85.9	87.7	50	65.1	0	2	292	0.00	30.016 
17:50	85.7	85.7	87.4	50	64.9	0	2	292	0.00	30.016 
17:55	85.5	85.5	87.2	50	64.7	0	3	292	0.00	30.016 
18:00	85.5	85.5	87.2	50	64.7	1	2	292	0.00	30.022 
18:05	85.3	85.3	87.1	51	65.1	0	1	292	0.00	30.022 
18:10	84.9	84.9	86.6	51	64.7	0	1	292	0.00	30.022 
18:15	84.7	84.7	86.5	52	65.1	0	1	292	0.00	30.023 
18:20	84.7	84.7	86.5	52	65.1	0	2	292	0.00	30.023 
18:25	84.5	84.5	86.5	53	65.5	0	1	292	0.00	30.023 
18:30	84.3	84.3	85.7	51	64.2	0	2	292	0.00	30.023 
18:35	84.3	84.3	86.2	53	65.3	0	1	292	0.00	30.023 
18:40	84.1	84.1	85.9	53	65.1	0	2	292	0.00	30.023 
18:45	83.8	83.8	85.7	54	65.3	0	1	292	0.00	30.013 
18:50	83.6	83.6	85.5	54	65.2	0	2	292	0.00	30.013 
18:55	83.6	83.6	85.5	54	65.2	0	1	292	0.00	30.013 
19:00	83.4	83.4	85.2	54	65.0	0	2	292	0.00	30.009 
19:05	83.2	83.2	85.1	55	65.3	0	0	---	0.00	30.009 
19:10	83.0	83.0	85.1	56	65.7	0	1	292	0.00	30.009 
19:15	82.8	82.8	84.8	56	65.5	0	1	292	0.00	30.003 
19:20	82.6	82.6	84.5	56	65.3	0	1	292	0.00	30.003 
19:25	82.6	82.6	84.3	55	64.8	0	1	292	0.00	30.003 
19:30	82.4	82.4	84.2	56	65.1	0	2	292	0.00	29.995 
19:35	82.4	82.4	84.4	57	65.6	0	1	292	0.00	29.995 
19:40	82.2	82.2	84.3	58	65.9	0	1	292	0.00	29.995 
19:45	82.0	82.0	84.1	58	65.7	0	1	292	0.00	29.995 
19:50	81.8	81.8	83.8	58	65.6	0	1	292	0.00	29.995 
19:55	81.6	81.6	83.5	58	65.4	0	1	292	0.00	29.995 
20:00	81.4	81.4	83.3	58	65.2	0	1	292	0.00	29.995 
20:05	81.2	81.2	83.2	59	65.5	0	0	---	0.00	29.995 
20:10	81.1	81.1	83.2	60	65.9	0	0	---	0.00	29.995 
20:15	80.7	80.7	82.7	60	65.5	0	1	292	0.00	29.989 
20:20	80.3	80.3	82.4	62	66.1	0	1	292	0.00	29.989 
20:25	80.1	80.1	82.2	62	65.9	0	0	---	0.00	29.989 
20:30	79.6	79.6	81.7	64	66.3	0	0	---	0.00	30.000 
20:35	79.2	79.2	81.3	65	66.4	0	0	---	0.00	30.000 
20:40	79.0	79.0	81.0	65	66.2	0	0	---	0.00	30.000 
20:45	78.6	78.6	80.7	67	66.7	0	0	---	0.00	29.996 
20:50	78.3	78.3	80.3	68	66.8	0	1	292	0.00	29.996 
20:55	78.1	78.1	80.1	69	67.1	0	0	---	0.00	29.996 
21:00	77.7	77.7	79.6	69	66.7	0	0	---	0.00	29.996 
21:05	77.6	77.6	79.5	70	67.0	0	0	---	0.00	29.996 
21:10	77.2	77.2	79.0	71	67.0	0	0	---	0.00	29.996 
21:15	76.8	76.8	78.5	72	67.1	0	0	---	0.00	30.006 
21:20	76.7	76.7	78.3	73	67.4	0	0	---	0.00	30.006 
21:25	76.5	76.5	78.1	74	67.6	0	0	---	0.00	30.006 
21:30	76.1	76.1	77.5	75	67.6	0	0	---	0.00	30.009 
21:35	76.0	76.0	77.4	75	67.5	0	0	---	0.00	30.009 
21:40	75.8	75.8	77.0	76	67.7	0	0	---	0.00	30.009 
21:45	75.6	75.6	76.7	77	67.9	0	0	---	0.00	30.023 
21:50	75.4	75.4	76.4	77	67.7	0	0	---	0.00	30.023 
21:55	75.3	75.3	76.3	77	67.6	0	0	---	0.00	30.023 
22:00	75.1	75.1	76.0	78	67.8	0	0	---	0.00	30.033 
22:05	74.7	74.7	74.7	79	67.7	0	0	---	0.00	30.033 
22:10	74.6	74.6	74.6	79	67.6	0	0	---	0.00	30.033 
22:15	74.2	74.2	74.2	80	67.6	0	0	---	0.00	30.046 
22:20	74.0	74.0	74.0	80	67.4	0	0	---	0.00	30.046 
22:25	73.7	73.7	73.7	81	67.5	0	0	---	0.00	30.046 
22:30	73.3	73.3	73.3	82	67.5	0	0	---	0.00	30.046 
22:35	73.2	73.2	73.2	82	67.4	0	0	---	0.00	30.046 
22:40	72.8	72.8	72.8	83	67.3	0	0	---	0.00	30.046 
22:45	72.7	72.7	72.7	84	67.6	0	0	---	0.00	30.047 
22:50	72.5	72.5	72.5	84	67.4	0	0	---	0.00	30.047 
22:55	72.5	72.5	72.5	85	67.7	0	0	---	0.00	30.047 
23:00	72.5	72.5	72.5	84	67.4	0	0	---	0.00	30.045 
23:05	72.3	72.3	72.3	84	67.2	0	0	---	0.00	30.045 
23:10	72.3	72.3	72.3	85	67.5	0	0	---	0.00	30.045 
23:15	72.1	72.1	72.1	85	67.3	0	0	---	0.00	30.047 
23:20	72.0	72.0	72.0	85	67.2	0	0	---	0.00	30.047 
23:25	71.8	71.8	71.8	86	67.4	0	0	---	0.00	30.047 
23:30	71.6	71.6	71.6	86	67.2	0	0	---	0.00	30.044 
23:35	71.3	71.3	71.3	87	67.2	0	0	---	0.00	30.044 
23:40	71.3	71.3	71.3	87	67.2	0	0	---	0.00	30.044 
23:45	71.1	71.1	71.1	88	67.4	0	0	---	0.00	30.042 
23:50	71.1	71.1	71.1	88	67.4	0	0	---	0.00	30.042 
23:55	70.9	70.9	70.9	88	67.2	0	0	---	0.00	30.042 

CoCoRaHS
IN-AL-39
A2 Web Hosting
Creative Commons License
GoDaddy
search engine by freefind advanced

loaded 2018-11-15 13:39:31 • last modified 2010-11-18 10:43:29
Privacy PolicyDisclaimer
• wx.awcolley.com is powered by PmWiki v.2002016 •
• all content (unless otherwise noted) © 2018 A W Colley